createdAt,value
2022-07-30T00:01:41.411Z,22.90
2022-07-30T00:04:08.932Z,22.90
2022-07-30T00:06:37.931Z,22.80
2022-07-30T00:09:05.642Z,22.80
2022-07-30T00:11:33.198Z,22.80
2022-07-30T00:14:01.119Z,22.80
2022-07-30T00:16:28.772Z,22.80
2022-07-30T00:18:56.230Z,22.80
2022-07-30T00:21:36.336Z,22.70
2022-07-30T00:24:08.760Z,22.70
2022-07-30T00:26:36.336Z,22.60
2022-07-30T00:29:04.779Z,22.60
2022-07-30T00:31:32.458Z,22.50
2022-07-30T00:34:00.158Z,22.50
2022-07-30T00:36:28.264Z,22.50
2022-07-30T00:38:55.802Z,22.40
2022-07-30T00:41:23.674Z,22.40
2022-07-30T00:43:51.154Z,22.40
2022-07-30T00:46:18.721Z,22.30
2022-07-30T00:48:46.318Z,22.30
2022-07-30T00:51:13.781Z,22.30
2022-07-30T00:53:41.453Z,22.20
2022-07-30T00:56:08.973Z,22.20
2022-07-30T00:58:36.411Z,22.10
2022-07-30T01:01:03.961Z,22.10
2022-07-30T01:03:31.411Z,22.10
2022-07-30T01:05:58.855Z,22.00
2022-07-30T01:08:26.267Z,22.00
2022-07-30T01:10:54.065Z,21.90
2022-07-30T01:13:21.732Z,21.90
2022-07-30T01:15:49.331Z,22.00
2022-07-30T01:18:17.785Z,21.80
2022-07-30T01:21:07.116Z,21.90
2022-07-30T01:23:39.847Z,21.80
2022-07-30T01:26:19.217Z,21.70
2022-07-30T01:28:50.149Z,21.70
2022-07-30T01:31:19.117Z,21.70
2022-07-30T01:33:49.500Z,21.70
2022-07-30T01:36:20.917Z,21.60
2022-07-30T01:38:50.108Z,21.60
2022-07-30T01:41:19.507Z,21.60
2022-07-30T01:43:47.494Z,21.60
2022-07-30T01:46:17.248Z,21.50
2022-07-30T01:48:47.818Z,21.60
2022-07-30T01:51:18.567Z,21.60
2022-07-30T01:53:51.866Z,21.60
2022-07-30T01:56:24.777Z,21.50
2022-07-30T01:58:55.750Z,21.50
2022-07-30T02:01:26.136Z,21.60
2022-07-30T02:04:01.832Z,21.50
2022-07-30T02:06:38.922Z,21.40
2022-07-30T02:09:11.618Z,21.40
2022-07-30T02:12:03.138Z,21.50
2022-07-30T02:14:39.394Z,21.50
2022-07-30T02:17:18.891Z,21.50
2022-07-30T02:19:54.477Z,21.60
2022-07-30T02:22:25.568Z,21.50
2022-07-30T02:24:55.462Z,21.50
2022-07-30T02:27:27.720Z,21.60
2022-07-30T02:29:57.472Z,21.60
2022-07-30T02:32:27.843Z,21.60
2022-07-30T02:35:03.718Z,21.50
2022-07-30T02:37:39.285Z,21.50
2022-07-30T02:40:16.360Z,21.60
2022-07-30T02:42:46.840Z,21.60
2022-07-30T02:45:18.106Z,21.60
2022-07-30T02:47:49.760Z,21.60
2022-07-30T02:50:19.643Z,21.60
2022-07-30T02:52:48.716Z,21.60
2022-07-30T02:55:18.340Z,21.50
2022-07-30T02:57:47.020Z,21.50
2022-07-30T03:00:14.907Z,21.50
2022-07-30T03:02:43.754Z,21.50
2022-07-30T03:05:13.698Z,21.40
2022-07-30T03:07:42.214Z,21.30
2022-07-30T03:10:11.359Z,21.20
2022-07-30T03:12:40.909Z,21.20
2022-07-30T03:15:08.988Z,21.20
2022-07-30T03:17:43.097Z,21.10
2022-07-30T03:20:15.792Z,21.10
2022-07-30T03:22:47.066Z,21.10
2022-07-30T03:25:25.950Z,21.10
2022-07-30T03:27:57.797Z,21.20
2022-07-30T03:30:26.737Z,21.10
2022-07-30T03:32:55.594Z,21.00
2022-07-30T03:35:26.656Z,21.00
2022-07-30T03:37:56.911Z,21.10
2022-07-30T03:40:25.733Z,21.10
2022-07-30T03:42:53.302Z,21.00
2022-07-30T03:45:24.596Z,21.00
2022-07-30T03:47:56.868Z,21.00
2022-07-30T03:50:24.858Z,20.90
2022-07-30T03:52:53.312Z,20.80
2022-07-30T03:55:22.482Z,20.90
2022-07-30T03:57:50.264Z,20.80
2022-07-30T04:00:20.213Z,20.80
2022-07-30T04:02:52.139Z,20.80
2022-07-30T04:05:45.869Z,20.80
2022-07-30T04:08:13.492Z,20.80
2022-07-30T04:10:41.882Z,20.80
2022-07-30T04:13:31.931Z,20.80
2022-07-30T04:16:39.447Z,20.90
2022-07-30T04:19:13.751Z,20.90
2022-07-30T04:21:41.719Z,20.90
2022-07-30T04:24:12.112Z,20.90
2022-07-30T04:26:39.881Z,20.90
2022-07-30T04:29:13.370Z,21.00
2022-07-30T04:31:42.280Z,21.00
2022-07-30T04:34:28.625Z,21.00
2022-07-30T04:36:56.162Z,21.10
2022-07-30T04:39:23.557Z,21.10
2022-07-30T04:41:51.208Z,21.20
2022-07-30T04:44:29.498Z,21.20
2022-07-30T04:47:18.476Z,21.30
2022-07-30T04:49:59.114Z,21.40
2022-07-30T04:52:28.294Z,21.40
2022-07-30T04:55:02.260Z,21.50
2022-07-30T04:57:32.142Z,21.50
2022-07-30T04:59:59.980Z,21.50
2022-07-30T05:02:30.827Z,21.70
2022-07-30T05:05:00.687Z,21.80
2022-07-30T05:07:29.499Z,21.90
2022-07-30T05:09:57.113Z,22.00
2022-07-30T05:12:37.485Z,21.90
2022-07-30T05:15:07.376Z,21.90
2022-07-30T05:17:35.352Z,22.00
2022-07-30T05:20:06.375Z,21.90
2022-07-30T05:22:51.359Z,21.90
2022-07-30T05:25:21.355Z,22.00
2022-07-30T05:27:51.363Z,22.00
2022-07-30T05:30:19.022Z,22.10
2022-07-30T05:32:51.482Z,22.10
2022-07-30T05:35:19.349Z,22.20
2022-07-30T05:37:47.097Z,22.40
2022-07-30T05:40:14.698Z,22.50
2022-07-30T05:43:17.191Z,22.70
2022-07-30T05:45:44.575Z,22.90
2022-07-30T05:48:12.075Z,23.00
2022-07-30T05:50:39.570Z,23.30
2022-07-30T05:53:07.050Z,23.50
2022-07-30T05:55:52.908Z,23.80
2022-07-30T05:58:58.724Z,24.10
2022-07-30T06:01:58.665Z,24.50
2022-07-30T06:04:35.605Z,24.90
2022-07-30T06:07:05.345Z,25.30
2022-07-30T06:09:36.520Z,25.90
2022-07-30T06:12:05.595Z,26.20
2022-07-30T06:14:33.166Z,26.60
2022-07-30T06:17:01.468Z,26.40
2022-07-30T06:19:40.627Z,26.90
2022-07-30T06:22:08.174Z,27.40
2022-07-30T06:24:42.128Z,27.80
2022-07-30T06:27:16.429Z,28.00
2022-07-30T06:29:43.920Z,28.50
2022-07-30T06:32:11.711Z,28.60
2022-07-30T06:34:41.080Z,28.80
2022-07-30T06:37:08.614Z,28.90
2022-07-30T06:39:53.732Z,29.30
2022-07-30T06:42:44.116Z,30.20
2022-07-30T06:45:30.501Z,31.00
2022-07-30T06:48:16.175Z,31.90
2022-07-30T06:50:44.111Z,32.40
2022-07-30T06:53:12.960Z,32.70
2022-07-30T06:56:16.243Z,33.00
2022-07-30T06:58:54.942Z,32.90
2022-07-30T07:01:41.145Z,33.20
2022-07-30T07:04:09.320Z,33.70
2022-07-30T07:06:39.366Z,34.00
2022-07-30T07:09:07.506Z,33.80
2022-07-30T07:11:42.179Z,34.30
2022-07-30T07:14:12.597Z,34.80
2022-07-30T07:16:40.216Z,35.40
2022-07-30T07:20:00.807Z,36.30
2022-07-30T07:22:21.203Z,36.50
2022-07-30T07:24:49.112Z,36.50
2022-07-30T07:27:22.814Z,36.60
2022-07-30T07:30:01.355Z,36.90
2022-07-30T07:32:35.100Z,36.90
2022-07-30T07:35:03.356Z,36.90
2022-07-30T07:37:31.562Z,36.80
2022-07-30T07:39:59.640Z,37.20
2022-07-30T07:42:28.611Z,36.90
2022-07-30T07:44:56.155Z,37.00
2022-07-30T07:47:24.004Z,37.30
2022-07-30T07:50:06.882Z,37.50
2022-07-30T07:52:34.463Z,37.50
2022-07-30T07:55:02.771Z,37.20
2022-07-30T07:57:33.425Z,37.40
2022-07-30T08:00:02.791Z,38.20
2022-07-30T08:02:32.989Z,38.50
2022-07-30T08:05:06.917Z,38.60
2022-07-30T08:08:03.556Z,38.90
2022-07-30T08:10:49.845Z,38.70
2022-07-30T08:13:48.338Z,38.60
2022-07-30T08:16:37.177Z,39.00
2022-07-30T08:19:38.401Z,38.30
2022-07-30T08:22:16.608Z,38.30
2022-07-30T08:24:44.177Z,38.80
2022-07-30T08:27:11.716Z,39.00
2022-07-30T08:29:39.210Z,39.20
2022-07-30T08:32:06.835Z,39.00
2022-07-30T08:34:37.069Z,39.10
2022-07-30T08:37:05.826Z,40.00
2022-07-30T08:39:34.350Z,40.00
2022-07-30T08:42:04.133Z,39.60
2022-07-30T08:44:33.962Z,39.60
2022-07-30T08:47:03.698Z,39.50
2022-07-30T08:50:04.596Z,39.00
2022-07-30T08:52:37.596Z,37.70
2022-07-30T08:55:07.226Z,36.10
2022-07-30T08:57:35.742Z,35.60
2022-07-30T09:00:06.246Z,35.80
2022-07-30T09:02:33.808Z,37.20
2022-07-30T09:05:06.269Z,38.40
2022-07-30T09:07:34.853Z,38.70
2022-07-30T09:10:05.402Z,39.20
2022-07-30T09:12:42.593Z,39.20
2022-07-30T09:15:12.690Z,38.40
2022-07-30T09:18:00.723Z,38.40
2022-07-30T09:20:33.162Z,37.80
2022-07-30T09:23:03.703Z,36.80
2022-07-30T09:25:54.332Z,36.70
2022-07-30T09:28:39.775Z,37.10
2022-07-30T09:31:17.659Z,36.80
2022-07-30T09:34:03.822Z,36.40
2022-07-30T09:36:49.880Z,35.30
2022-07-30T09:39:35.901Z,34.80
2022-07-30T09:42:28.339Z,34.20
2022-07-30T09:45:10.270Z,34.70
2022-07-30T09:47:50.527Z,35.70
2022-07-30T09:50:30.344Z,36.20
2022-07-30T09:53:11.943Z,36.60
2022-07-30T09:55:42.807Z,36.60
2022-07-30T09:58:16.711Z,36.30
2022-07-30T10:00:59.354Z,36.20
2022-07-30T10:03:48.452Z,35.60
2022-07-30T10:06:38.175Z,35.30
2022-07-30T10:09:45.228Z,35.70
2022-07-30T10:12:17.184Z,36.40
2022-07-30T10:14:52.905Z,37.50
2022-07-30T10:17:22.159Z,38.70
2022-07-30T10:20:14.907Z,39.20
2022-07-30T10:23:07.827Z,39.50
2022-07-30T10:25:54.930Z,39.60
2022-07-30T10:28:53.205Z,39.90
2022-07-30T10:31:47.930Z,40.00
2022-07-30T10:34:10.781Z,40.60
2022-07-30T10:36:43.226Z,40.60
2022-07-30T10:39:15.801Z,40.50
2022-07-30T10:42:07.913Z,40.40
2022-07-30T10:44:39.111Z,40.60
2022-07-30T10:47:12.032Z,40.50
2022-07-30T10:49:41.920Z,40.40
2022-07-30T10:52:12.144Z,40.20
2022-07-30T10:54:41.265Z,40.10
2022-07-30T10:57:23.097Z,40.30
2022-07-30T11:00:00.844Z,40.10
2022-07-30T11:02:31.268Z,40.20
2022-07-30T11:05:18.118Z,40.00
2022-07-30T11:07:47.395Z,39.40
2022-07-30T11:10:38.058Z,38.80
2022-07-30T11:13:07.618Z,37.40
2022-07-30T11:15:55.093Z,36.70
2022-07-30T11:18:25.125Z,35.70
2022-07-30T11:21:21.427Z,35.10
2022-07-30T11:23:53.411Z,34.20
2022-07-30T11:26:41.856Z,33.60
2022-07-30T11:29:35.907Z,33.00
2022-07-30T11:32:32.541Z,32.80
2022-07-30T11:35:16.425Z,32.40
2022-07-30T11:38:10.137Z,32.30
2022-07-30T11:40:59.822Z,32.20
2022-07-30T11:43:35.595Z,32.20
2022-07-30T11:46:29.655Z,32.10
2022-07-30T11:49:08.444Z,32.00
2022-07-30T11:51:46.434Z,32.00
2022-07-30T11:54:14.729Z,31.80
2022-07-30T11:56:54.303Z,31.80
2022-07-30T11:59:21.831Z,31.80
2022-07-30T12:01:53.497Z,31.80
2022-07-30T12:04:20.980Z,31.70
2022-07-30T12:06:48.931Z,31.70
2022-07-30T12:09:29.704Z,31.70
2022-07-30T12:11:57.958Z,31.80
2022-07-30T12:14:25.810Z,31.80
2022-07-30T12:16:54.678Z,31.50
2022-07-30T12:19:22.292Z,31.50
2022-07-30T12:21:53.249Z,31.60
2022-07-30T12:24:30.330Z,31.70
2022-07-30T12:27:08.547Z,31.70
2022-07-30T12:29:36.564Z,31.70
2022-07-30T12:32:04.390Z,31.60
2022-07-30T12:34:31.896Z,31.40
2022-07-30T12:37:09.945Z,31.50
2022-07-30T12:39:37.782Z,31.60
2022-07-30T12:42:05.393Z,31.60
2022-07-30T12:44:44.898Z,31.70
2022-07-30T12:47:26.551Z,31.90
2022-07-30T12:49:55.781Z,32.00
2022-07-30T12:52:27.803Z,32.10
2022-07-30T12:55:11.199Z,32.20
2022-07-30T12:57:53.963Z,32.30
2022-07-30T13:00:40.407Z,32.30
2022-07-30T13:03:22.929Z,32.30
2022-07-30T13:05:55.216Z,32.40
2022-07-30T13:08:48.214Z,32.40
2022-07-30T13:11:15.862Z,32.50
2022-07-30T13:13:43.341Z,32.40
2022-07-30T13:16:10.747Z,32.20
2022-07-30T13:18:38.351Z,32.20
2022-07-30T13:21:09.224Z,32.20
2022-07-30T13:23:39.628Z,32.20
2022-07-30T13:26:09.001Z,32.30
2022-07-30T13:28:36.559Z,32.30
2022-07-30T13:31:04.544Z,32.30
2022-07-30T13:33:32.037Z,32.30
2022-07-30T13:35:59.665Z,32.30
2022-07-30T13:38:28.186Z,32.30
2022-07-30T13:41:00.395Z,32.30
2022-07-30T13:43:29.845Z,32.40
2022-07-30T13:46:03.069Z,32.40
2022-07-30T13:48:31.712Z,32.50
2022-07-30T13:51:01.476Z,32.40
2022-07-30T13:53:29.591Z,32.40
2022-07-30T13:55:59.439Z,32.30
2022-07-30T13:58:27.827Z,32.30
2022-07-30T14:00:55.547Z,32.30
2022-07-30T14:03:22.965Z,32.40
2022-07-30T14:05:50.432Z,32.40
2022-07-30T14:08:17.929Z,32.50
2022-07-30T14:10:45.410Z,32.60
2022-07-30T14:13:19.155Z,32.50
2022-07-30T14:15:48.805Z,32.60
2022-07-30T14:18:16.375Z,32.60
2022-07-30T14:20:48.431Z,32.60
2022-07-30T14:23:16.988Z,32.60
2022-07-30T14:25:44.857Z,32.60
2022-07-30T14:28:12.525Z,32.60
2022-07-30T14:30:40.154Z,32.70
2022-07-30T14:33:08.255Z,32.70
2022-07-30T14:35:35.718Z,32.80
2022-07-30T14:38:03.630Z,32.90
2022-07-30T14:40:31.360Z,33.00
2022-07-30T14:42:59.463Z,33.00
2022-07-30T14:45:26.946Z,33.10
2022-07-30T14:47:56.436Z,33.00
2022-07-30T14:50:23.886Z,33.00
2022-07-30T14:52:52.046Z,32.90
2022-07-30T14:55:19.547Z,32.80
2022-07-30T14:57:47.306Z,32.90
2022-07-30T15:00:15.137Z,32.80
2022-07-30T15:02:43.606Z,32.80
2022-07-30T15:05:11.098Z,32.70
2022-07-30T15:07:38.487Z,32.70
2022-07-30T15:10:09.621Z,32.60
2022-07-30T15:12:37.214Z,32.60
2022-07-30T15:15:07.777Z,32.50
2022-07-30T15:17:38.769Z,32.40
2022-07-30T15:20:09.175Z,32.40
2022-07-30T15:22:36.695Z,32.30
2022-07-30T15:25:05.127Z,32.30
2022-07-30T15:27:34.191Z,32.40
2022-07-30T15:30:02.548Z,32.30
2022-07-30T15:32:30.068Z,32.40
2022-07-30T15:34:58.790Z,32.40
2022-07-30T15:37:26.391Z,32.30
2022-07-30T15:39:53.865Z,32.30
2022-07-30T15:42:21.331Z,32.30
2022-07-30T15:44:49.355Z,32.30
2022-07-30T15:47:16.889Z,32.30
2022-07-30T15:49:44.666Z,32.30
2022-07-30T15:52:12.215Z,32.20
2022-07-30T15:54:39.700Z,32.20
2022-07-30T15:57:07.185Z,32.20
2022-07-30T15:59:34.579Z,32.10
2022-07-30T16:02:02.291Z,32.10
2022-07-30T16:04:32.435Z,32.20
2022-07-30T16:07:04.489Z,32.10
2022-07-30T16:09:31.984Z,32.10
2022-07-30T16:11:59.659Z,32.00
2022-07-30T16:14:27.408Z,32.10
2022-07-30T16:16:54.996Z,32.00
2022-07-30T16:19:22.530Z,32.00
2022-07-30T16:21:49.956Z,32.00
2022-07-30T16:24:17.803Z,32.10
2022-07-30T16:26:45.223Z,32.00
2022-07-30T16:29:14.035Z,32.00
2022-07-30T16:31:41.861Z,32.00
2022-07-30T16:34:09.410Z,31.90
2022-07-30T16:36:36.844Z,31.90
2022-07-30T16:39:05.222Z,31.90
2022-07-30T16:41:32.779Z,31.90
2022-07-30T16:44:00.273Z,31.90
2022-07-30T16:46:27.871Z,31.80
2022-07-30T16:48:55.575Z,31.80
2022-07-30T16:51:23.119Z,31.70
2022-07-30T16:53:50.651Z,31.70
2022-07-30T16:56:18.131Z,31.70
2022-07-30T16:58:45.682Z,31.60
2022-07-30T17:01:13.312Z,31.60
2022-07-30T17:03:40.878Z,31.60
2022-07-30T17:06:08.341Z,31.50
2022-07-30T17:08:35.803Z,31.50
2022-07-30T17:11:04.016Z,31.40
2022-07-30T17:13:37.046Z,31.40
2022-07-30T17:16:07.097Z,31.40
2022-07-30T17:18:35.680Z,31.30
2022-07-30T17:21:03.743Z,31.20
2022-07-30T17:23:31.267Z,31.20
2022-07-30T17:25:58.814Z,31.20
2022-07-30T17:28:26.929Z,31.10
2022-07-30T17:30:54.760Z,31.10
2022-07-30T17:33:22.175Z,31.10
2022-07-30T17:35:49.684Z,31.10
2022-07-30T17:38:17.184Z,31.00
2022-07-30T17:40:44.659Z,31.00
2022-07-30T17:43:13.933Z,30.90
2022-07-30T17:45:42.339Z,30.90
2022-07-30T17:48:09.918Z,30.90
2022-07-30T17:50:37.391Z,30.80
2022-07-30T17:53:06.163Z,30.80
2022-07-30T17:55:35.397Z,30.70
2022-07-30T17:58:04.404Z,30.70
2022-07-30T18:00:34.694Z,30.70
2022-07-30T18:03:03.682Z,30.60
2022-07-30T18:05:32.212Z,30.60
2022-07-30T18:07:59.704Z,30.50
2022-07-30T18:10:27.158Z,30.40
2022-07-30T18:12:54.564Z,30.40
2022-07-30T18:15:22.351Z,30.40
2022-07-30T18:17:49.762Z,30.30
2022-07-30T18:20:17.258Z,30.20
2022-07-30T18:22:44.726Z,30.00
2022-07-30T18:25:18.100Z,30.00
2022-07-30T18:27:48.093Z,29.90
2022-07-30T18:30:16.179Z,29.80
2022-07-30T18:32:44.573Z,29.70
2022-07-30T18:35:14.688Z,29.70
2022-07-30T18:37:44.330Z,29.60
2022-07-30T18:40:13.597Z,29.50
2022-07-30T18:42:42.078Z,29.40
2022-07-30T18:45:13.744Z,29.30
2022-07-30T18:47:45.784Z,29.20
2022-07-30T18:50:15.755Z,29.20
2022-07-30T18:52:43.462Z,29.10
2022-07-30T18:55:12.397Z,29.00
2022-07-30T18:57:41.308Z,29.00
2022-07-30T19:00:34.331Z,28.80
2022-07-30T19:02:59.962Z,28.80
2022-07-30T19:05:27.792Z,28.80
2022-07-30T19:07:55.648Z,28.70
2022-07-30T19:10:27.082Z,28.70
2022-07-30T19:12:55.647Z,28.60
2022-07-30T19:15:23.372Z,28.60
2022-07-30T19:17:51.667Z,28.50
2022-07-30T19:20:19.615Z,28.50
2022-07-30T19:22:47.371Z,28.50
2022-07-30T19:25:15.055Z,28.40
2022-07-30T19:27:42.534Z,28.30
2022-07-30T19:30:10.451Z,28.30
2022-07-30T19:32:37.895Z,28.30
2022-07-30T19:35:05.837Z,28.30
2022-07-30T19:37:41.081Z,28.20
2022-07-30T19:40:08.993Z,28.10
2022-07-30T19:42:37.271Z,27.90
2022-07-30T19:47:59.687Z,27.50
2022-07-30T19:50:29.183Z,27.40
2022-07-30T19:52:56.678Z,27.30
2022-07-30T19:55:35.034Z,27.30
2022-07-30T19:58:04.559Z,27.30
2022-07-30T20:00:32.085Z,27.30
2022-07-30T20:03:03.372Z,27.20
2022-07-30T20:05:32.238Z,27.10
2022-07-30T20:08:24.811Z,27.10
2022-07-30T20:10:52.719Z,27.10
2022-07-30T20:13:20.139Z,27.10
2022-07-30T20:15:49.708Z,27.10
2022-07-30T20:18:29.309Z,27.10
2022-07-30T20:20:57.616Z,27.00
2022-07-30T20:23:25.361Z,27.00
2022-07-30T20:25:53.016Z,27.10
2022-07-30T20:28:21.835Z,27.00
2022-07-30T20:30:53.354Z,27.00
2022-07-30T20:33:26.712Z,27.00
2022-07-30T20:36:03.870Z,27.00
2022-07-30T20:38:33.774Z,27.00
2022-07-30T20:41:03.266Z,26.90
2022-07-30T20:43:51.692Z,26.90
2022-07-30T20:46:23.222Z,26.90
2022-07-30T20:48:52.824Z,26.80
2022-07-30T20:51:20.685Z,26.80
2022-07-30T20:53:49.454Z,26.70
2022-07-30T20:56:19.361Z,26.70
2022-07-30T20:58:48.239Z,26.60
2022-07-30T21:01:17.230Z,26.60
2022-07-30T21:03:47.766Z,26.60
2022-07-30T21:06:16.989Z,26.50
2022-07-30T21:08:44.396Z,26.40
2022-07-30T21:11:12.583Z,26.40
2022-07-30T21:13:41.327Z,26.30
2022-07-30T21:18:57.160Z,26.30
2022-07-30T21:21:29.095Z,26.20
2022-07-30T21:24:11.521Z,26.20
2022-07-30T21:26:43.196Z,26.20
2022-07-30T21:29:10.983Z,26.20
2022-07-30T21:32:01.343Z,26.20
2022-07-30T21:34:28.876Z,26.20
2022-07-30T21:36:58.452Z,26.10
2022-07-30T21:39:28.891Z,26.10
2022-07-30T21:41:57.260Z,26.10
2022-07-30T21:44:24.811Z,26.10
2022-07-30T21:46:52.902Z,26.00
2022-07-30T21:49:21.890Z,26.00
2022-07-30T21:51:50.921Z,26.00
2022-07-30T21:54:26.514Z,25.90
2022-07-30T21:56:58.245Z,25.80
2022-07-30T21:59:27.670Z,25.70
2022-07-30T22:01:56.423Z,25.70
2022-07-30T22:04:23.986Z,25.60
2022-07-30T22:06:51.550Z,25.50
2022-07-30T22:09:33.977Z,25.60
2022-07-30T22:12:09.666Z,25.50
2022-07-30T22:14:39.432Z,25.60
2022-07-30T22:17:14.766Z,25.60
2022-07-30T22:19:52.181Z,25.60
2022-07-30T22:22:27.302Z,25.70
2022-07-30T22:24:57.238Z,25.60
2022-07-30T22:27:39.626Z,25.60
2022-07-30T22:30:15.821Z,25.60
2022-07-30T22:32:43.676Z,25.60
2022-07-30T22:35:12.863Z,25.60
2022-07-30T22:37:44.926Z,25.50
2022-07-30T22:40:13.429Z,25.50
2022-07-30T22:42:46.929Z,25.50
2022-07-30T22:45:46.936Z,25.50
2022-07-30T22:48:10.806Z,25.50
2022-07-30T22:50:40.018Z,25.40
2022-07-30T22:53:56.725Z,25.30
2022-07-30T22:55:58.669Z,25.30
2022-07-30T22:58:26.737Z,25.30
2022-07-30T23:00:54.663Z,25.30
2022-07-30T23:03:22.211Z,25.30
2022-07-30T23:05:55.209Z,25.20
2022-07-30T23:08:29.873Z,25.20
2022-07-30T23:10:59.895Z,25.30
2022-07-30T23:12:15.037Z,27.70
2022-07-30T23:12:27.040Z,26.30
2022-07-30T23:13:28.577Z,25.10
2022-07-30T23:15:56.483Z,25.10
2022-07-30T23:18:24.038Z,25.10
2022-07-30T23:20:51.500Z,25.10
2022-07-30T23:23:18.943Z,25.00
2022-07-30T23:25:46.449Z,24.80
2022-07-30T23:28:13.858Z,24.90
2022-07-30T23:30:41.246Z,24.80
2022-07-30T23:33:08.715Z,24.80
2022-07-30T23:35:36.114Z,24.70
2022-07-30T23:38:03.573Z,24.70
2022-07-30T23:40:31.034Z,24.70
2022-07-30T23:42:58.431Z,24.60
2022-07-30T23:45:25.848Z,24.70
2022-07-30T23:48:02.615Z,24.60
2022-07-30T23:50:32.134Z,24.60
2022-07-30T23:53:00.637Z,24.60
2022-07-30T23:55:28.956Z,24.50
2022-07-30T23:57:56.999Z,24.60
